Station Historical Data
Daily Summary for October 20, 2017 Units:  English    Metric   Both
Next Day »
Daily Weekly Monthly Yearly Custom
  High: Low: Average:
Temperature: 51.6 °F 41.6 °F 45.9 °F
Dew Point: 47.5 °F 37.7 °F 41.9 °F
Humidity: 88% 80% 86%
Wind Speed: 16.0mph 0.0mph 1.3mph
Wind Gust: 32.0mph - -
Wind- - SSW
Pressure: 30.21 in 29.76 in -
Precipitation: 0.00 in    
Historical Graphs
 
 
Tabular Data for October 20, 2017
Time Temperature Dew Point Pressure Wind Wind Speed Wind Gust Humidity Rainfall Rate (Hourly) solar Conditions
00:07 51.6 °F 47.2 °F 29.78 in SSW 11.0 mph 20.0 mph 85% 0.00 in 0.00 W/m2
00:12 51.6 °F 47.2 °F 29.77 in South 13.0 mph 21.0 mph 85% 0.00 in 0.00 W/m2
00:17 51.5 °F 47.2 °F 29.77 in SE 9.0 mph 17.0 mph 85% 0.00 in 0.00 W/m2
00:22 51.5 °F 47.2 °F 29.76 in South 15.0 mph 22.0 mph 85% 0.00 in 0.00 W/m2
00:27 51.5 °F 47.2 °F 29.76 in SSW 12.0 mph 26.0 mph 85% 0.00 in 0.00 W/m2
00:32 51.5 °F 47.2 °F 29.76 in South 15.0 mph 21.0 mph 85% 0.00 in 0.00 W/m2
00:37 51.5 °F 47.2 °F 29.77 in SSW 5.0 mph 22.0 mph 85% 0.23 in 0.00 W/m2
00:42 51.4 °F 47.4 °F 29.78 in SW 12.0 mph 24.0 mph 86% 0.15 in 0.00 W/m2
00:47 51.4 °F 47.4 °F 29.78 in SSW 14.0 mph 21.0 mph 86% 0.28 in 0.00 W/m2
00:52 51.4 °F 47.4 °F 29.78 in South 8.0 mph 21.0 mph 86% 0.17 in 0.00 W/m2
00:57 51.4 °F 47.4 °F 29.78 in SW 12.0 mph 15.0 mph 86% 0.14 in 0.00 W/m2
01:02 51.4 °F 47.4 °F 29.78 in SSW 16.0 mph 22.0 mph 86% 0.38 in 0.00 W/m2
01:07 51.5 °F 47.5 °F 29.78 in SSW 8.0 mph 18.0 mph 86% 0.37 in 0.00 W/m2
01:12 51.5 °F 47.5 °F 29.77 in SSW 12.0 mph 28.0 mph 86% 0.46 in 0.00 W/m2
01:17 51.4 °F 47.4 °F 29.78 in South 10.0 mph 26.0 mph 86% 0.33 in 0.00 W/m2
01:22 51.4 °F 47.4 °F 29.78 in South 10.0 mph 32.0 mph 86% 0.29 in 0.00 W/m2
01:27 51.4 °F 47.4 °F 29.80 in West 6.0 mph 21.0 mph 86% 0.25 in 0.00 W/m2
01:32 50.9 °F 46.9 °F 29.81 in WNW 4.0 mph 16.0 mph 86% 0.21 in 0.00 W/m2
01:37 49.6 °F 45.6 °F 29.81 in WNW 9.0 mph 15.0 mph 86% 0.19 in 0.00 W/m2
01:42 48.8 °F 44.8 °F 29.82 in WNW 2.0 mph 16.0 mph 86% 0.21 in 0.00 W/m2
01:47 48.3 °F 44.3 °F 29.83 in West 6.0 mph 15.0 mph 86% 0.21 in 0.00 W/m2
01:52 48.1 °F 44.1 °F 29.83 in Calm   1.0 mph 86% 0.51 in 0.00 W/m2
01:57 47.9 °F 43.9 °F 29.83 in Calm   1.0 mph 86% 0.55 in 0.00 W/m2
02:02 47.7 °F 43.7 °F 29.84 in WNW 7.0 mph 15.0 mph 86% 0.44 in 0.00 W/m2
02:07 47.6 °F 43.6 °F 29.84 in Calm   1.0 mph 86% 0.38 in 0.00 W/m2
02:12 47.4 °F 43.4 °F 29.85 in Calm   1.0 mph 86% 0.35 in 0.00 W/m2
02:17 47.3 °F 43.3 °F 29.85 in Calm   5.0 mph 86% 0.31 in 0.00 W/m2
02:22 47.2 °F 43.2 °F 29.86 in Calm   10.0 mph 86% 0.29 in 0.00 W/m2
02:27 47.1 °F 43.1 °F 29.87 in Calm     86% 0.28 in 0.00 W/m2
02:32 47.1 °F 43.1 °F 29.86 in Calm     86% 0.27 in 0.00 W/m2
02:37 47.1 °F 43.1 °F 29.86 in Calm     86% 0.24 in 0.00 W/m2
02:42 47.1 °F 43.1 °F 29.86 in Calm     86% 0.22 in 0.00 W/m2
02:47 47.0 °F 43.0 °F 29.86 in Calm     86% 0.18 in 0.00 W/m2
02:52 47.0 °F 43.0 °F 29.88 in Calm     86% 0.18 in 0.00 W/m2
02:57 47.0 °F 43.0 °F 29.87 in Calm   10.0 mph 86% 0.15 in 0.00 W/m2
03:02 46.6 °F 42.6 °F 29.86 in Calm     86% 0.14 in 0.00 W/m2
03:07 46.5 °F 42.5 °F 29.86 in Calm     86% 0.13 in 0.00 W/m2
03:13 46.3 °F 42.3 °F 29.87 in Calm     86% 0.10 in 0.00 W/m2
03:18 46.2 °F 42.2 °F 29.87 in Calm     86% 0.08 in 0.00 W/m2
03:23 46.1 °F 42.2 °F 29.89 in Calm     86% 0.08 in 0.00 W/m2
03:28 46.1 °F 42.2 °F 29.89 in Calm     86% 0.06 in 0.00 W/m2
03:33 46.0 °F 42.0 °F 29.90 in Calm     86% 0.06 in 0.00 W/m2
03:38 46.0 °F 42.0 °F 29.90 in Calm     86% 0.05 in 0.00 W/m2
03:43 46.0 °F 42.0 °F 29.90 in Calm     86% 0.00 in 0.00 W/m2
03:48 45.9 °F 42.0 °F 29.90 in Calm     86% 0.00 in 0.00 W/m2
03:53 45.7 °F 42.1 °F 29.91 in Calm     87% 0.00 in 0.00 W/m2
03:58 45.6 °F 42.0 °F 29.90 in Calm     87% 0.00 in 0.00 W/m2
04:03 45.6 °F 42.0 °F 29.91 in Calm   1.0 mph 87% 0.00 in 0.00 W/m2
04:08 45.6 °F 42.0 °F 29.92 in SW 1.0 mph 1.0 mph 87% 0.00 in 0.00 W/m2
04:13 45.6 °F 42.0 °F 29.92 in SW 8.0 mph 9.0 mph 87% 0.00 in 0.00 W/m2
04:18 45.7 °F 42.1 °F 29.92 in Calm   1.0 mph 87% 0.00 in 0.00 W/m2
04:23 45.6 °F 42.0 °F 29.93 in Calm   10.0 mph 87% 0.00 in 0.00 W/m2
04:28 45.2 °F 41.6 °F 29.93 in Calm   1.0 mph 87% 0.00 in 0.00 W/m2
04:33 45.0 °F 41.4 °F 29.93 in Calm   7.0 mph 87% 0.00 in 0.00 W/m2
04:38 44.9 °F 41.3 °F 29.93 in SW 7.0 mph 12.0 mph 87% 0.00 in 0.00 W/m2
04:43 44.7 °F 41.1 °F 29.93 in Calm     87% 0.00 in 0.00 W/m2
04:48 44.5 °F 40.9 °F 29.94 in Calm   8.0 mph 87% 0.00 in 0.00 W/m2
04:53 44.3 °F 40.7 °F 29.95 in Calm     87% 0.00 in 0.00 W/m2
04:58 44.2 °F 40.6 °F 29.95 in Calm     87% 0.00 in 0.00 W/m2
05:03 44.1 °F 40.5 °F 29.96 in Calm     87% 0.00 in 0.00 W/m2
05:08 44.1 °F 40.5 °F 29.96 in Calm     87% 0.00 in 0.00 W/m2
05:11 44.1 °F 40.5 °F 29.96 in Calm     87% 0.00 in 0.00 W/m2
05:16 44.1 °F 40.5 °F 29.96 in Calm     87% 0.00 in 0.00 W/m2
05:21 44.1 °F 40.5 °F 29.96 in Calm     87% 0.00 in 0.00 W/m2
05:26 44.1 °F 40.5 °F 29.97 in Calm     87% 0.00 in 0.00 W/m2
05:31 44.2 °F 40.6 °F 29.97 in Calm     87% 0.00 in 0.00 W/m2
05:36 44.2 °F 40.6 °F 29.97 in Calm     87% 0.00 in 0.00 W/m2
05:41 44.2 °F 40.6 °F 29.97 in Calm     87% 0.00 in 0.00 W/m2
05:46 44.3 °F 40.7 °F 29.97 in Calm     87% 0.00 in 0.00 W/m2
05:51 44.3 °F 40.7 °F 29.97 in Calm     87% 0.00 in 0.00 W/m2
05:56 44.3 °F 40.7 °F 29.98 in Calm     87% 0.00 in 0.00 W/m2
06:01 44.3 °F 40.7 °F 29.98 in Calm     87% 0.00 in 0.00 W/m2
06:06 44.2 °F 40.6 °F 29.98 in Calm     87% 0.00 in 0.00 W/m2
06:11 44.3 °F 40.7 °F 29.98 in Calm     87% 0.00 in 0.00 W/m2
06:16 44.3 °F 40.7 °F 29.98 in Calm     87% 0.00 in 0.00 W/m2
06:21 44.3 °F 40.7 °F 29.98 in Calm     87% 0.00 in 0.00 W/m2
06:26 44.3 °F 40.7 °F 29.99 in Calm     87% 0.00 in 0.00 W/m2
06:31 44.3 °F 40.7 °F 29.98 in Calm     87% 0.00 in 0.00 W/m2
06:36 44.3 °F 40.7 °F 29.98 in Calm     87% 0.00 in 0.00 W/m2
06:41 44.4 °F 40.8 °F 29.99 in Calm     87% 0.00 in 0.00 W/m2
06:46 44.4 °F 40.8 °F 29.99 in Calm     87% 0.00 in 0.00 W/m2
06:51 44.4 °F 40.8 °F 29.99 in Calm     87% 0.00 in 0.00 W/m2
06:56 44.3 °F 40.7 °F 29.99 in Calm     87% 0.00 in 0.00 W/m2
07:01 44.3 °F 40.7 °F 29.99 in Calm     87% 0.00 in 0.00 W/m2
07:06 44.2 °F 40.6 °F 29.99 in Calm     87% 0.00 in 0.00 W/m2
07:11 44.1 °F 40.5 °F 29.99 in Calm     87% 0.00 in 0.00 W/m2
07:16 44.1 °F 40.5 °F 29.99 in Calm     87% 0.00 in 0.00 W/m2
07:22 44.1 °F 40.5 °F 30.00 in Calm     87% 0.00 in 5.00 W/m2
07:27 44.0 °F 40.4 °F 30.00 in Calm     87% 0.00 in 5.00 W/m2
07:32 44.1 °F 40.5 °F 30.00 in Calm     87% 0.00 in 11.00 W/m2
07:37 44.1 °F 40.5 °F 30.00 in Calm     87% 0.00 in 16.00 W/m2
07:42 44.1 °F 40.5 °F 30.00 in Calm     87% 0.00 in 18.00 W/m2
07:47 44.1 °F 40.5 °F 30.00 in Calm     87% 0.00 in 16.00 W/m2
07:52 44.1 °F 40.5 °F 30.01 in Calm     87% 0.00 in 28.00 W/m2
07:57 44.0 °F 40.4 °F 30.01 in Calm     87% 0.00 in 25.00 W/m2
08:02 44.1 °F 40.5 °F 30.01 in Calm     87% 0.00 in 33.00 W/m2
08:07 44.0 °F 40.4 °F 30.01 in Calm     87% 0.00 in 35.00 W/m2
08:12 44.0 °F 40.4 °F 30.02 in Calm     87% 0.00 in 42.00 W/m2
08:17 44.0 °F 40.4 °F 30.02 in Calm     87% 0.00 in 30.00 W/m2
08:18 44.0 °F 40.4 °F 30.02 in Calm     87% 0.00 in 32.00 W/m2
08:23 44.0 °F 40.4 °F 30.02 in Calm     87% 0.00 in 49.00 W/m2
08:28 43.9 °F 40.3 °F 30.02 in Calm     87% 0.00 in 53.00 W/m2
08:33 43.9 °F 40.3 °F 30.02 in Calm     87% 0.00 in 95.00 W/m2
08:38 43.9 °F 40.3 °F 30.02 in Calm     87% 0.00 in 202.00 W/m2
08:43 43.9 °F 40.3 °F 30.03 in Calm     87% 0.00 in 287.00 W/m2
08:48 44.0 °F 40.4 °F 30.02 in Calm     87% 0.00 in 225.00 W/m2
08:53 44.0 °F 40.4 °F 30.03 in Calm   2.0 mph 87% 0.00 in 204.00 W/m2
08:54 44.0 °F 40.4 °F 30.03 in Calm   2.0 mph 87% 0.00 in 153.00 W/m2
08:59 44.0 °F 40.4 °F 30.03 in SSE 1.0 mph 4.0 mph 87% 0.00 in 241.00 W/m2
09:04 44.1 °F 40.5 °F 30.04 in Calm   1.0 mph 87% 0.00 in 327.00 W/m2
09:09 44.1 °F 40.5 °F 30.04 in Calm   1.0 mph 87% 0.00 in 348.00 W/m2
09:14 44.2 °F 40.6 °F 30.04 in Calm     87% 0.00 in 359.00 W/m2
09:19 44.3 °F 40.7 °F 30.05 in Calm     87% 0.00 in 334.00 W/m2
09:24 44.4 °F 40.8 °F 30.05 in Calm   4.0 mph 87% 0.00 in 193.00 W/m2
09:29 44.5 °F 40.9 °F 30.05 in South 1.0 mph 2.0 mph 87% 0.00 in 113.00 W/m2
09:34 44.6 °F 41.0 °F 30.05 in Calm   2.0 mph 87% 0.00 in 137.00 W/m2
09:39 44.7 °F 41.1 °F 30.05 in SSE 2.0 mph 4.0 mph 87% 0.00 in 135.00 W/m2
09:44 44.8 °F 41.2 °F 30.06 in South 1.0 mph 4.0 mph 87% 0.00 in 246.00 W/m2
09:49 44.9 °F 41.3 °F 30.05 in South 2.0 mph 4.0 mph 87% 0.00 in 241.00 W/m2
09:55 44.9 °F 41.3 °F 30.06 in Calm   2.0 mph 87% 0.00 in 160.00 W/m2
10:00 45.0 °F 41.4 °F 30.06 in Calm   2.0 mph 87% 0.00 in 149.00 W/m2
10:05 45.0 °F 41.4 °F 30.06 in Calm   2.0 mph 87% 0.00 in 163.00 W/m2
10:10 45.1 °F 41.5 °F 30.06 in Calm   1.0 mph 87% 0.00 in 178.00 W/m2
10:15 45.1 °F 41.5 °F 30.06 in Calm   2.0 mph 87% 0.00 in 214.00 W/m2
10:20 45.2 °F 41.6 °F 30.06 in Calm   3.0 mph 87% 0.00 in 294.00 W/m2
10:25 45.2 °F 41.6 °F 30.06 in Calm   1.0 mph 87% 0.00 in 304.00 W/m2
10:30 45.4 °F 41.8 °F 30.06 in Calm   4.0 mph 87% 0.00 in 397.00 W/m2
10:35 45.6 °F 42.0 °F 30.06 in Calm   1.0 mph 87% 0.00 in 188.00 W/m2
10:40 45.8 °F 42.2 °F 30.07 in Calm   4.0 mph 87% 0.00 in 165.00 W/m2
10:45 45.8 °F 42.2 °F 30.07 in Calm   3.0 mph 87% 0.00 in 652.00 W/m2
10:50 45.8 °F 42.5 °F 30.07 in Calm     88% 0.00 in 294.00 W/m2
10:55 46.0 °F 42.3 °F 30.07 in SSW 2.0 mph 3.0 mph 87% 0.00 in 735.00 W/m2
11:00 46.3 °F 42.7 °F 30.07 in Calm   3.0 mph 87% 0.00 in 747.00 W/m2
11:05 46.7 °F 43.3 °F 30.06 in SSW 1.0 mph 2.0 mph 88% 0.00 in 905.00 W/m2
11:10 47.0 °F 43.6 °F 30.06 in Calm   2.0 mph 88% 0.00 in 649.00 W/m2
11:15 46.9 °F 43.5 °F 30.06 in South 1.0 mph 2.0 mph 88% 0.00 in 322.00 W/m2
11:20 46.8 °F 43.1 °F 30.07 in Calm   3.0 mph 87% 0.00 in 120.00 W/m2
11:25 46.5 °F 42.8 °F 30.07 in Calm   3.0 mph 87% 0.00 in 186.00 W/m2
11:30 46.3 °F 42.7 °F 30.07 in SW 1.0 mph 4.0 mph 87% 0.00 in 840.00 W/m2
11:35 46.5 °F 42.8 °F 30.07 in Calm   4.0 mph 87% 0.00 in 221.00 W/m2
11:40 46.6 °F 42.9 °F 30.08 in SSW 1.0 mph 2.0 mph 87% 0.00 in 200.00 W/m2
11:45 46.6 °F 42.9 °F 30.08 in SSW 1.0 mph 2.0 mph 87% 0.00 in 186.00 W/m2
11:50 46.6 °F 42.9 °F 30.08 in Calm   4.0 mph 87% 0.00 in 216.00 W/m2
11:55 46.6 °F 42.9 °F 30.08 in Calm   1.0 mph 87% 0.00 in 167.00 W/m2
12:00 46.7 °F 43.0 °F 30.07 in Calm   2.0 mph 87% 0.00 in 199.00 W/m2
12:05 46.8 °F 43.1 °F 30.08 in Calm     87% 0.00 in 190.00 W/m2
12:10 46.8 °F 43.1 °F 30.07 in SSW 2.0 mph 5.0 mph 87% 0.00 in 149.00 W/m2
12:15 46.8 °F 43.1 °F 30.07 in Calm   3.0 mph 87% 0.00 in 125.00 W/m2
12:20 46.7 °F 43.0 °F 30.08 in Calm     87% 0.00 in 172.00 W/m2
12:25 46.8 °F 43.1 °F 30.08 in Calm     87% 0.00 in 134.00 W/m2
12:30 46.9 °F 43.2 °F 30.08 in Calm     87% 0.00 in 225.00 W/m2
12:35 47.0 °F 43.3 °F 30.08 in Calm     87% 0.00 in 255.00 W/m2
12:40 47.1 °F 43.4 °F 30.07 in South 2.0 mph 5.0 mph 87% 0.00 in 886.00 W/m2
12:41 47.2 °F 43.5 °F 30.07 in Calm   8.0 mph 87% 0.00 in 343.00 W/m2
12:46 47.3 °F 43.6 °F 30.08 in SSW 2.0 mph 2.0 mph 87% 0.00 in 327.00 W/m2
12:51 47.6 °F 43.9 °F 30.07 in WSW 2.0 mph 3.0 mph 87% 0.00 in 816.00 W/m2
12:56 47.9 °F 44.2 °F 30.07 in Calm   2.0 mph 87% 0.00 in 907.00 W/m2
13:01 48.2 °F 44.8 °F 30.08 in SSW 5.0 mph 8.0 mph 88% 0.00 in 274.00 W/m2
13:06 47.9 °F 44.2 °F 30.08 in Calm   4.0 mph 87% 0.00 in 362.00 W/m2
13:11 48.3 °F 44.3 °F 30.08 in Calm   3.0 mph 86% 0.00 in 338.00 W/m2
13:16 48.6 °F 44.6 °F 30.08 in WSW 3.0 mph 4.0 mph 86% 0.00 in 926.00 W/m2
13:21 48.8 °F 44.8 °F 30.07 in Calm   4.0 mph 86% 0.00 in 243.00 W/m2
13:26 48.9 °F 44.9 °F 30.08 in West 4.0 mph 5.0 mph 86% 0.00 in 288.00 W/m2
13:31 48.9 °F 44.6 °F 30.07 in WSW 1.0 mph 1.0 mph 85% 0.00 in 139.00 W/m2
13:36 48.7 °F 44.1 °F 30.08 in Calm   3.0 mph 84% 0.00 in 127.00 W/m2
13:41 48.7 °F 44.4 °F 30.08 in WSW 2.0 mph 2.0 mph 85% 0.00 in 148.00 W/m2
13:46 48.6 °F 44.6 °F 30.08 in WSW 1.0 mph 4.0 mph 86% 0.00 in 151.00 W/m2
13:52 48.4 °F 44.1 °F 30.08 in WSW 1.0 mph 3.0 mph 85% 0.00 in 253.00 W/m2
13:56 48.3 °F 44.0 °F 30.08 in Calm   4.0 mph 85% 0.00 in 236.00 W/m2
14:02 48.3 °F 44.0 °F 30.08 in WSW 1.0 mph 4.0 mph 85% 0.00 in 200.00 W/m2
14:07 48.3 °F 43.7 °F 30.08 in WSW 3.0 mph 4.0 mph 84% 0.00 in 160.00 W/m2
14:12 48.3 °F 43.4 °F 30.08 in WSW 1.0 mph 1.0 mph 83% 0.00 in 125.00 W/m2
14:17 48.3 °F 43.4 °F 30.08 in SW 1.0 mph 4.0 mph 83% 0.00 in 162.00 W/m2
14:22 48.4 °F 43.8 °F 30.08 in SW 3.0 mph 4.0 mph 84% 0.00 in 234.00 W/m2
14:27 48.6 °F 43.7 °F 30.09 in WSW 2.0 mph 5.0 mph 83% 0.00 in 229.00 W/m2
14:32 48.6 °F 44.0 °F 30.08 in Calm   3.0 mph 84% 0.00 in 243.00 W/m2
14:37 48.6 °F 44.0 °F 30.09 in Calm   5.0 mph 84% 0.00 in 306.00 W/m2
14:42 48.7 °F 44.1 °F 30.08 in Calm     84% 0.00 in 225.00 W/m2
14:47 48.7 °F 43.8 °F 30.08 in SSW 3.0 mph 5.0 mph 83% 0.00 in 631.00 W/m2
14:52 48.7 °F 43.8 °F 30.09 in SW 4.0 mph 6.0 mph 83% 0.00 in 167.00 W/m2
14:57 48.7 °F 43.5 °F 30.08 in WSW 3.0 mph 4.0 mph 82% 0.00 in 306.00 W/m2
15:02 48.8 °F 43.6 °F 30.08 in Calm     82% 0.00 in 582.00 W/m2
15:07 49.0 °F 44.1 °F 30.09 in West 1.0 mph 2.0 mph 83% 0.00 in 325.00 W/m2
15:12 49.0 °F 43.8 °F 30.09 in Calm   4.0 mph 82% 0.00 in 195.00 W/m2
15:17 49.0 °F 43.4 °F 30.09 in SSW 2.0 mph 5.0 mph 81% 0.00 in 735.00 W/m2
15:22 49.1 °F 43.5 °F 30.09 in SW 6.0 mph 9.0 mph 81% 0.00 in 577.00 W/m2
15:27 49.4 °F 44.1 °F 30.10 in SSW 5.0 mph 5.0 mph 82% 0.00 in 125.00 W/m2
15:32 49.3 °F 43.4 °F 30.10 in West 8.0 mph 8.0 mph 80% 0.00 in 130.00 W/m2
15:37 49.2 °F 43.6 °F 30.10 in Calm   5.0 mph 81% 0.00 in 148.00 W/m2
15:42 49.0 °F 43.4 °F 30.10 in SW 4.0 mph 4.0 mph 81% 0.00 in 155.00 W/m2
15:47 49.0 °F 43.4 °F 30.10 in Calm     81% 0.00 in 425.00 W/m2
15:52 49.0 °F 43.4 °F 30.10 in Calm     81% 0.00 in 332.00 W/m2
15:57 49.0 °F 43.4 °F 30.11 in SSW 4.0 mph 7.0 mph 81% 0.00 in 130.00 W/m2
16:02 49.0 °F 43.4 °F 30.11 in Calm   5.0 mph 81% 0.00 in 113.00 W/m2
16:07 48.9 °F 43.3 °F 30.11 in Calm   5.0 mph 81% 0.00 in 246.00 W/m2
16:12 48.8 °F 43.2 °F 30.11 in WSW 4.0 mph 7.0 mph 81% 0.00 in 195.00 W/m2
16:17 48.8 °F 43.2 °F 30.11 in SW 4.0 mph 4.0 mph 81% 0.00 in 540.00 W/m2
16:22 48.8 °F 43.6 °F 30.11 in WSW 2.0 mph 6.0 mph 82% 0.00 in 153.00 W/m2
16:27 48.7 °F 43.1 °F 30.11 in WSW 4.0 mph 4.0 mph 81% 0.00 in 156.00 W/m2
16:32 48.7 °F 43.1 °F 30.11 in West 2.0 mph 6.0 mph 81% 0.00 in 181.00 W/m2
16:37 48.6 °F 43.0 °F 30.11 in Calm   3.0 mph 81% 0.00 in 316.00 W/m2
16:42 48.5 °F 43.3 °F 30.12 in Calm   1.0 mph 82% 0.00 in 116.00 W/m2
16:47 48.4 °F 43.2 °F 30.13 in Calm     82% 0.00 in 70.00 W/m2
16:52 48.3 °F 43.1 °F 30.12 in Calm     82% 0.00 in 236.00 W/m2
16:57 48.3 °F 43.4 °F 30.12 in Calm     83% 0.00 in 221.00 W/m2
17:02 48.3 °F 43.4 °F 30.12 in Calm     83% 0.00 in 81.00 W/m2
17:07 48.1 °F 42.9 °F 30.13 in WSW 1.0 mph 3.0 mph 82% 0.00 in 63.00 W/m2
17:12 48.0 °F 42.8 °F 30.13 in Calm     82% 0.00 in 111.00 W/m2
17:17 47.9 °F 43.0 °F 30.13 in Calm     83% 0.00 in 148.00 W/m2
17:22 47.8 °F 42.9 °F 30.12 in Calm   4.0 mph 83% 0.00 in 156.00 W/m2
17:27 47.8 °F 43.2 °F 30.12 in Calm     84% 0.00 in 153.00 W/m2
17:33 47.6 °F 42.7 °F 30.12 in Calm     83% 0.00 in 98.00 W/m2
17:38 47.7 °F 42.8 °F 30.12 in Calm     83% 0.00 in 60.00 W/m2
17:43 47.6 °F 42.7 °F 30.12 in Calm     83% 0.00 in 35.00 W/m2
17:48 47.6 °F 42.7 °F 30.12 in Calm     83% 0.00 in 39.00 W/m2
17:53 47.6 °F 42.7 °F 30.12 in Calm     83% 0.00 in 32.00 W/m2
17:54 47.7 °F 42.8 °F 30.12 in Calm     83% 0.00 in 30.00 W/m2
17:59 47.6 °F 43.0 °F 30.12 in Calm     84% 0.00 in 18.00 W/m2
18:04 47.4 °F 42.8 °F 30.12 in Calm     84% 0.00 in 16.00 W/m2
18:09 46.8 °F 41.9 °F 30.12 in Calm     83% 0.00 in 11.00 W/m2
18:14 46.5 °F 41.9 °F 30.12 in Calm     84% 0.00 in 7.00 W/m2
18:19 46.2 °F 42.0 °F 30.13 in Calm     85% 0.00 in 0.00 W/m2
18:24 46.0 °F 41.8 °F 30.13 in Calm     85% 0.00 in 0.00 W/m2
18:29 45.9 °F 41.7 °F 30.13 in Calm     85% 0.00 in 0.00 W/m2
18:34 45.8 °F 41.5 °F 30.13 in Calm     85% 0.00 in 0.00 W/m2
18:39 45.7 °F 41.5 °F 30.14 in Calm     85% 0.00 in 0.00 W/m2
18:44 45.4 °F 41.2 °F 30.14 in Calm     85% 0.00 in 0.00 W/m2
18:50 45.1 °F 41.2 °F 30.14 in Calm     86% 0.00 in 0.00 W/m2
18:55 44.9 °F 41.0 °F 30.14 in Calm     86% 0.00 in 0.00 W/m2
19:00 44.6 °F 40.7 °F 30.14 in Calm     86% 0.00 in 0.00 W/m2
19:05 44.2 °F 40.3 °F 30.14 in Calm     86% 0.00 in 0.00 W/m2
19:10 44.0 °F 40.1 °F 30.14 in Calm     86% 0.00 in 0.00 W/m2
19:15 43.8 °F 40.2 °F 30.14 in Calm     87% 0.00 in 0.00 W/m2
19:20 43.6 °F 40.0 °F 30.14 in Calm     87% 0.00 in 0.00 W/m2
19:25 43.5 °F 39.9 °F 30.14 in Calm     87% 0.00 in 0.00 W/m2
19:30 43.4 °F 39.8 °F 30.15 in Calm     87% 0.00 in 0.00 W/m2
19:35 43.4 °F 39.8 °F 30.15 in Calm     87% 0.00 in 0.00 W/m2
19:36 43.4 °F 39.8 °F 30.15 in Calm     87% 0.00 in 0.00 W/m2
19:41 43.4 °F 39.8 °F 30.16 in Calm     87% 0.00 in 0.00 W/m2
19:46 43.4 °F 39.8 °F 30.15 in Calm     87% 0.00 in 0.00 W/m2
19:51 43.5 °F 39.9 °F 30.14 in Calm     87% 0.00 in 0.00 W/m2
19:56 43.5 °F 39.9 °F 30.14 in Calm     87% 0.00 in 0.00 W/m2
20:01 43.5 °F 39.9 °F 30.14 in Calm     87% 0.00 in 0.00 W/m2
20:06 43.5 °F 39.9 °F 30.15 in Calm     87% 0.00 in 0.00 W/m2
20:20 43.4 °F 39.8 °F 30.15 in Calm     87% 0.00 in 0.00 W/m2
20:23 43.4 °F 39.8 °F 30.15 in Calm   5.0 mph 87% 0.00 in 0.00 W/m2
20:25 43.3 °F 39.7 °F 30.15 in East 4.0 mph 8.0 mph 87% 0.00 in 0.00 W/m2
20:27 43.3 °F 39.7 °F 30.15 in East 4.0 mph 7.0 mph 87% 0.00 in 0.00 W/m2
20:31 43.3 °F 39.7 °F 30.15 in East 1.0 mph 2.0 mph 87% 0.00 in 0.00 W/m2
20:32 43.2 °F 39.6 °F 30.15 in Calm   6.0 mph 87% 0.00 in 0.00 W/m2
20:37 43.2 °F 39.6 °F 30.15 in East 5.0 mph 8.0 mph 87% 0.00 in 0.00 W/m2
20:42 43.1 °F 39.5 °F 30.15 in Calm   7.0 mph 87% 0.00 in 0.00 W/m2
20:47 43.0 °F 39.4 °F 30.15 in East 2.0 mph 5.0 mph 87% 0.00 in 0.00 W/m2
20:52 43.0 °F 39.4 °F 30.16 in East 5.0 mph 8.0 mph 87% 0.00 in 0.00 W/m2
20:57 42.9 °F 39.3 °F 30.16 in Calm   7.0 mph 87% 0.00 in 0.00 W/m2
21:02 42.9 °F 39.3 °F 30.16 in East 2.0 mph 2.0 mph 87% 0.00 in 0.00 W/m2
21:07 42.9 °F 39.3 °F 30.16 in Calm     87% 0.00 in 0.00 W/m2
21:12 42.8 °F 39.2 °F 30.17 in Calm   6.0 mph 87% 0.00 in 0.00 W/m2
21:17 42.8 °F 39.2 °F 30.16 in Calm   6.0 mph 87% 0.00 in 0.00 W/m2
21:22 42.8 °F 39.2 °F 30.16 in Calm   3.0 mph 87% 0.00 in 0.00 W/m2
21:27 42.8 °F 39.2 °F 30.16 in Calm     87% 0.00 in 0.00 W/m2
21:32 42.8 °F 39.2 °F 30.16 in Calm     87% 0.00 in 0.00 W/m2
21:37 42.8 °F 39.2 °F 30.16 in Calm     87% 0.00 in 0.00 W/m2
21:42 42.8 °F 39.2 °F 30.16 in Calm   3.0 mph 87% 0.00 in 0.00 W/m2
21:47 42.7 °F 39.1 °F 30.17 in Calm   4.0 mph 87% 0.00 in 0.00 W/m2
21:53 42.7 °F 39.1 °F 30.17 in Calm   3.0 mph 87% 0.00 in 0.00 W/m2
21:58 42.6 °F 39.0 °F 30.17 in Calm   5.0 mph 87% 0.00 in 0.00 W/m2
22:03 42.5 °F 38.9 °F 30.18 in Calm   5.0 mph 87% 0.00 in 0.00 W/m2
22:08 42.5 °F 38.9 °F 30.18 in Calm   3.0 mph 87% 0.00 in 0.00 W/m2
22:13 42.5 °F 38.9 °F 30.18 in Calm     87% 0.00 in 0.00 W/m2
22:18 42.5 °F 38.9 °F 30.18 in Calm     87% 0.00 in 0.00 W/m2
22:23 42.4 °F 38.8 °F 30.18 in Calm     87% 0.00 in 0.00 W/m2
22:28 42.4 °F 38.8 °F 30.18 in Calm     87% 0.00 in 0.00 W/m2
22:33 42.3 °F 38.7 °F 30.18 in Calm     87% 0.00 in 0.00 W/m2
22:38 42.3 °F 38.7 °F 30.19 in Calm     87% 0.00 in 0.00 W/m2
22:43 42.2 °F 38.3 °F 30.19 in Calm   4.0 mph 86% 0.00 in 0.00 W/m2
22:48 42.1 °F 38.2 °F 30.20 in East 3.0 mph 4.0 mph 86% 0.00 in 0.00 W/m2
22:53 42.0 °F 38.1 °F 30.20 in Calm     86% 0.00 in 0.00 W/m2
22:58 42.0 °F 38.1 °F 30.20 in Calm     86% 0.00 in 0.00 W/m2
23:03 41.9 °F 38.0 °F 30.20 in Calm     86% 0.00 in 0.00 W/m2
23:08 41.9 °F 38.0 °F 30.20 in Calm   6.0 mph 86% 0.00 in 0.00 W/m2
23:13 41.8 °F 37.9 °F 30.20 in Calm   6.0 mph 86% 0.00 in 0.00 W/m2
23:18 41.8 °F 37.9 °F 30.20 in Calm   6.0 mph 86% 0.00 in 0.00 W/m2
23:23 41.8 °F 37.9 °F 30.20 in East 4.0 mph 6.0 mph 86% 0.00 in 0.00 W/m2
23:28 41.8 °F 37.9 °F 30.20 in Calm   5.0 mph 86% 0.00 in 0.00 W/m2
23:33 41.8 °F 37.9 °F 30.20 in East 4.0 mph 5.0 mph 86% 0.00 in 0.00 W/m2
23:38 41.8 °F 37.9 °F 30.20 in East 4.0 mph 8.0 mph 86% 0.00 in 0.00 W/m2
23:43 41.7 °F 37.8 °F 30.20 in East 1.0 mph 7.0 mph 86% 0.00 in 0.00 W/m2
23:48 41.6 °F 37.7 °F 30.20 in Calm   6.0 mph 86% 0.00 in 0.00 W/m2
23:53 41.6 °F 37.7 °F 30.20 in East 4.0 mph 5.0 mph 86% 0.00 in 0.00 W/m2
23:58 41.6 °F 38.0 °F 30.21 in Calm     87% 0.00 in 0.00 W/m2
Foresthill Weather
 WU-history PHP script courtesy of   Juneau County Weather.
powered by Cumulus v1.9.3 (1059)
Ambient Weather VWS v14.00
Top Contact Website Map Copyright © 2007 - 2018 Foresthillweather.com Never base important decisions on this or any weather information obtained from the Internet